Time;durP1;ratioP1;P1;durP2;ratioP2;P2;SDS_P1;SDS_P2;PMS_P1;PMS_P2;Temp;Humidity;BMP_temperature;BMP_pressure;BME280_temperature;BME280_humidity;BME280_pressure;Samples;Min_cycle;Max_cycle;Signal;HPM_P1;HPM_P2
2022/06/29 00:00:23;;;;;;;10.10;8.50;;;;;;;;;;1738290;81;21646;-70
2022/06/29 00:02:48;;;;;;;;;;;;;;;;;;1723623;82;21026;-70
2022/06/29 00:05:15;;;;;;;9.38;7.92;;;;;;;;;;1725110;82;20139;-70
2022/06/29 00:07:42;;;;;;;10.80;9.65;;;;;;;;;;1715427;82;21537;-70
2022/06/29 00:10:09;;;;;;;11.45;10.45;;;;;;;;;;1743456;82;21009;-69
2022/06/29 00:12:35;;;;;;;10.80;8.70;;;;;;;;;;1729581;82;20977;-70
2022/06/29 00:15:02;;;;;;;11.25;8.50;;;;;;;;;;1738081;82;21028;-70
2022/06/29 00:17:30;;;;;;;10.32;9.08;;;;;;;;;;1719680;82;21482;-70
2022/06/29 00:19:57;;;;;;;10.85;9.83;;;;;;;;;;1724448;82;21000;-70
2022/06/29 00:22:23;;;;;;;11.93;10.80;;;;;;;;;;1732399;82;20985;-70
2022/06/29 00:24:49;;;;;;;9.93;8.65;;;;;;;;;;1734438;82;21736;-69
2022/06/29 00:27:15;;;;;;;11.55;9.43;;;;;;;;;;1728810;82;21477;-70
2022/06/29 00:29:41;;;;;;;11.68;10.58;;;;;;;;;;1738332;82;21061;-70
2022/06/29 00:32:08;;;;;;;13.48;10.63;;;;;;;;;;1711002;82;21537;-69
2022/06/29 00:34:34;;;;;;;16.62;11.33;;;;;;;;;;1722032;82;21023;-69
2022/06/29 00:37:00;;;;;;;11.65;8.73;;;;;;;;;;1720080;82;21025;-70
2022/06/29 00:39:26;;;;;;;9.85;8.33;;;;;;;;;;1734776;82;21022;-69
2022/06/29 00:41:52;;;;;;;10.00;9.00;;;;;;;;;;1731680;82;20962;-69
2022/06/29 00:44:18;;;;;;;10.20;9.03;;;;;;;;;;1730294;82;21501;-70
2022/06/29 00:46:48;;;;;;;10.58;9.58;;;;;;;;;;1721717;81;21640;-69
2022/06/29 00:49:16;;;;;;;10.95;9.58;;;;;;;;;;1733404;82;21065;-70
2022/06/29 00:51:49;;;;;;;10.60;9.50;;;;;;;;;;1714656;82;21012;-69
2022/06/29 00:54:15;;;;;;;;;;;;;;;;;;1718370;82;21096;-69
2022/06/29 00:56:41;;;;;;;13.48;10.48;;;;;;;;;;1720610;82;20160;-70
2022/06/29 00:59:07;;;;;;;12.25;11.05;;;;;;;;;;1731183;82;21069;-70
2022/06/29 01:04:30;;;;;;;11.38;8.53;;;;;;;;;;1750927;78;72249;-69
2022/06/29 01:06:57;;;;;;;11.75;9.50;;;;;;;;;;1760175;81;21052;-69
2022/06/29 01:09:23;;;;;;;10.32;9.00;;;;;;;;;;1760335;81;21568;-69
2022/06/29 01:11:49;;;;;;;12.55;11.35;;;;;;;;;;1750609;81;21041;-69
2022/06/29 01:14:15;;;;;;;12.43;11.18;;;;;;;;;;1734485;81;21073;-69
2022/06/29 01:16:41;;;;;;;10.93;8.90;;;;;;;;;;1760423;81;21065;-71
2022/06/29 01:19:08;;;;;;;10.65;9.48;;;;;;;;;;1760512;81;21516;-70
2022/06/29 01:21:35;;;;;;;10.90;9.60;;;;;;;;;;1720036;81;21021;-70
2022/06/29 01:24:02;;;;;;;11.40;10.20;;;;;;;;;;1758341;81;21058;-70
2022/06/29 01:26:28;;;;;;;12.85;10.70;;;;;;;;;;1760774;81;21053;-70
2022/06/29 01:28:54;;;;;;;10.35;9.23;;;;;;;;;;1754019;81;21005;-70
2022/06/29 01:31:20;;;;;;;11.95;10.23;;;;;;;;;;1753617;81;21508;-70
2022/06/29 01:33:47;;;;;;;12.47;11.28;;;;;;;;;;1757995;81;21030;-70
2022/06/29 01:36:14;;;;;;;11.60;9.30;;;;;;;;;;1734242;81;21029;-70
2022/06/29 01:38:40;;;;;;;10.58;9.53;;;;;;;;;;1747413;81;21029;-70
2022/06/29 01:41:08;;;;;;;10.95;9.80;;;;;;;;;;1757450;81;21041;-70
2022/06/29 01:43:38;;;;;;;12.58;11.28;;;;;;;;;;1757853;81;21501;-70
2022/06/29 01:46:03;;;;;;;11.18;9.85;;;;;;;;;;1758596;81;21481;-70
2022/06/29 01:48:30;;;;;;;12.03;9.85;;;;;;;;;;1755910;81;21046;-70
2022/06/29 01:50:56;;;;;;;11.40;10.05;;;;;;;;;;1753888;81;21005;-71
2022/06/29 01:53:22;;;;;;;12.85;11.63;;;;;;;;;;1755764;81;21516;-70
2022/06/29 01:55:48;;;;;;;10.85;8.53;;;;;;;;;;1758614;81;21001;-70
2022/06/29 01:58:14;;;;;;;10.50;8.88;;;;;;;;;;1756725;81;21071;-70
2022/06/29 02:00:40;;;;;;;13.32;10.60;;;;;;;;;;1759144;81;21045;-70
2022/06/29 02:03:06;;;;;;;12.25;11.15;;;;;;;;;;1760113;81;21148;-70
2022/06/29 02:05:32;;;;;;;11.05;9.75;;;;;;;;;;1759608;81;21053;-70
2022/06/29 02:08:00;;;;;;;11.33;10.00;;;;;;;;;;1759302;81;21006;-70
2022/06/29 02:10:27;;;;;;;11.90;10.38;;;;;;;;;;1760745;81;21093;-70
2022/06/29 02:12:53;;;;;;;11.73;10.53;;;;;;;;;;1755636;81;20989;-71
2022/06/29 02:15:19;;;;;;;13.00;11.70;;;;;;;;;;1756575;81;21337;-70
2022/06/29 02:17:46;;;;;;;10.88;8.90;;;;;;;;;;1756939;81;21552;-70
2022/06/29 02:20:12;;;;;;;10.98;9.15;;;;;;;;;;1757744;81;21005;-70
2022/06/29 02:22:39;;;;;;;11.43;9.50;;;;;;;;;;1760897;81;21022;-69
2022/06/29 02:25:05;;;;;;;12.85;11.55;;;;;;;;;;1760995;81;21017;-68
2022/06/29 02:27:31;;;;;;;14.00;10.50;;;;;;;;;;1760896;81;21028;-68
2022/06/29 02:29:59;;;;;;;11.00;9.83;;;;;;;;;;1759642;81;21013;-68
2022/06/29 02:35:10;;;;;;;14.25;11.80;;;;;;;;;;1756656;81;21524;-71
2022/06/29 02:37:37;;;;;;;12.73;9.83;;;;;;;;;;1760962;81;21010;-71
2022/06/29 02:40:04;;;;;;;11.28;9.45;;;;;;;;;;1760315;81;21061;-71
2022/06/29 02:42:30;;;;;;;11.57;10.05;;;;;;;;;;1757134;81;21108;-71
2022/06/29 02:44:56;;;;;;;12.82;11.33;;;;;;;;;;1755463;81;21013;-71
2022/06/29 02:47:22;;;;;;;11.88;9.68;;;;;;;;;;1757499;81;21026;-71
2022/06/29 02:49:48;;;;;;;11.43;10.00;;;;;;;;;;1759532;81;20998;-71
2022/06/29 02:52:14;;;;;;;11.53;10.03;;;;;;;;;;1756136;81;21520;-71
2022/06/29 02:54:40;;;;;;;12.58;11.28;;;;;;;;;;1757207;81;21584;-72
2022/06/29 02:57:07;;;;;;;12.73;11.40;;;;;;;;;;1759808;81;21485;-71
2022/06/29 02:59:33;;;;;;;13.50;12.10;;;;;;;;;;1760972;81;21064;-71
2022/06/29 03:01:59;;;;;;;11.68;10.58;;;;;;;;;;1760164;81;20974;-71
2022/06/29 03:04:25;;;;;;;11.00;9.78;;;;;;;;;;1750847;81;22180;-71
2022/06/29 03:06:51;;;;;;;11.10;9.95;;;;;;;;;;1762776;81;21063;-71
2022/06/29 03:09:17;;;;;;;10.85;9.75;;;;;;;;;;1761101;81;21060;-71
2022/06/29 03:11:43;;;;;;;13.50;12.15;;;;;;;;;;1761980;81;20989;-72
2022/06/29 03:16:57;;;;;;;11.78;10.58;;;;;;;;;;1787966;79;22882;-71
2022/06/29 03:19:24;;;;;;;13.28;11.00;;;;;;;;;;1763150;80;21028;-72
2022/06/29 03:21:50;;;;;;;13.38;11.05;;;;;;;;;;1790363;80;21020;-71
2022/06/29 03:24:16;;;;;;;10.95;9.78;;;;;;;;;;1792260;80;21566;-71
2022/06/29 03:26:43;;;;;;;11.97;10.78;;;;;;;;;;1782072;80;21045;-72
2022/06/29 03:29:09;;;;;;;10.55;9.45;;;;;;;;;;1762891;80;20984;-72
2022/06/29 03:31:35;;;;;;;12.70;11.10;;;;;;;;;;1762029;80;21088;-72
2022/06/29 03:34:01;;;;;;;10.40;9.03;;;;;;;;;;1773623;80;21021;-72
2022/06/29 03:36:29;;;;;;;11.45;10.23;;;;;;;;;;1768484;80;21060;-72
2022/06/29 03:38:56;;;;;;;11.97;10.78;;;;;;;;;;1779148;80;21560;-72
2022/06/29 03:41:22;;;;;;;10.95;9.25;;;;;;;;;;1764613;80;21025;-72
2022/06/29 03:43:48;;;;;;;9.95;8.90;;;;;;;;;;1769205;80;21021;-70
2022/06/29 03:46:14;;;;;;;11.22;10.23;;;;;;;;;;1780940;80;21028;-71
2022/06/29 03:48:41;;;;;;;11.18;10.18;;;;;;;;;;1769521;80;20975;-72
2022/06/29 03:51:07;;;;;;;9.15;8.25;;;;;;;;;;1776003;80;21066;-72
2022/06/29 03:53:33;;;;;;;9.80;8.80;;;;;;;;;;1762220;80;21061;-72
2022/06/29 03:55:59;;;;;;;10.35;9.30;;;;;;;;;;1786656;80;21111;-72
2022/06/29 03:58:25;;;;;;;10.68;9.58;;;;;;;;;;1791124;80;21942;-70
2022/06/29 04:00:51;;;;;;;9.85;8.85;;;;;;;;;;1766117;80;21040;-73
2022/06/29 04:03:18;;;;;;;9.73;8.75;;;;;;;;;;1773322;80;21118;-72
2022/06/29 04:05:43;;;;;;;18.25;9.85;;;;;;;;;;1723955;82;21368;-71
2022/06/29 04:08:10;;;;;;;10.03;9.03;;;;;;;;;;1696966;84;21073;-71
2022/06/29 04:10:37;;;;;;;9.78;8.45;;;;;;;;;;1724590;83;21556;-71
2022/06/29 04:13:03;;;;;;;10.70;9.18;;;;;;;;;;1727531;82;21583;-71
2022/06/29 04:15:29;;;;;;;9.80;8.80;;;;;;;;;;1707116;83;21014;-72
2022/06/29 04:17:55;;;;;;;9.45;8.38;;;;;;;;;;1691045;85;21040;-72
2022/06/29 04:23:07;;;;;;;8.03;7.20;;;;;;;;;;1728695;82;21069;-72
2022/06/29 04:25:33;;;;;;;8.63;7.83;;;;;;;;;;1747054;82;21041;-72
2022/06/29 04:27:59;;;;;;;8.88;8.00;;;;;;;;;;1711230;84;21037;-72
2022/06/29 04:30:25;;;;;;;7.72;7.03;;;;;;;;;;1670395;85;22151;-72
2022/06/29 04:32:51;;;;;;;8.53;7.72;;;;;;;;;;1697542;83;21065;-72
2022/06/29 04:35:17;;;;;;;8.55;7.62;;;;;;;;;;1727198;81;21576;-72
2022/06/29 04:37:44;;;;;;;9.13;7.72;;;;;;;;;;1689167;84;21025;-72
2022/06/29 04:40:11;;;;;;;8.10;7.40;;;;;;;;;;1723850;82;21031;-72
2022/06/29 04:42:37;;;;;;;8.03;7.30;;;;;;;;;;1747570;82;21042;-72
2022/06/29 04:45:04;;;;;;;13.60;7.67;;;;;;;;;;1742590;81;21551;-72
2022/06/29 04:47:31;;;;;;;8.53;7.55;;;;;;;;;;1751007;81;21032;-72
2022/06/29 04:49:57;;;;;;;8.60;7.80;;;;;;;;;;1748045;82;21000;-72
2022/06/29 04:52:24;;;;;;;11.73;7.85;;;;;;;;;;1744960;82;21004;-74
2022/06/29 04:54:50;;;;;;;7.42;6.83;;;;;;;;;;1726100;82;21025;-72
2022/06/29 04:57:16;;;;;;;7.97;7.05;;;;;;;;;;1747526;81;21052;-72
2022/06/29 04:59:42;;;;;;;8.25;7.45;;;;;;;;;;1743444;81;21051;-72
2022/06/29 05:02:08;;;;;;;7.90;7.12;;;;;;;;;;1737739;81;21072;-72
2022/06/29 05:04:35;;;;;;;7.65;6.95;;;;;;;;;;1743231;82;21077;-73
2022/06/29 05:07:01;;;;;;;11.15;7.58;;;;;;;;;;1747143;81;20925;-71
2022/06/29 05:09:27;;;;;;;7.97;7.15;;;;;;;;;;1747536;81;21631;-71
2022/06/29 05:11:53;;;;;;;7.80;7.03;;;;;;;;;;1751502;82;21496;-71
2022/06/29 05:14:19;;;;;;;36.33;10.30;;;;;;;;;;1711069;83;21581;-72
2022/06/29 05:16:46;;;;;;;8.38;7.50;;;;;;;;;;1703937;82;21014;-72
2022/06/29 05:19:12;;;;;;;9.43;7.47;;;;;;;;;;1712045;82;21021;-71
2022/06/29 05:21:38;;;;;;;10.93;8.38;;;;;;;;;;1722999;82;21041;-71
2022/06/29 05:24:05;;;;;;;12.60;8.35;;;;;;;;;;1755539;82;20936;-70
2022/06/29 05:26:31;;;;;;;8.53;7.83;;;;;;;;;;1708050;83;22156;-71
2022/06/29 05:28:57;;;;;;;8.63;7.83;;;;;;;;;;1708296;83;21078;-71
2022/06/29 05:31:23;;;;;;;9.23;8.38;;;;;;;;;;1662557;85;21000;-71
2022/06/29 05:33:50;;;;;;;9.33;7.67;;;;;;;;;;1694715;85;21068;-71
2022/06/29 05:36:15;;;;;;;7.75;7.05;;;;;;;;;;1756014;81;21044;-71
2022/06/29 05:38:41;;;;;;;8.33;7.53;;;;;;;;;;1756506;81;21017;-72
2022/06/29 05:41:08;;;;;;;12.15;8.23;;;;;;;;;;1754692;80;21578;-72
2022/06/29 05:43:34;;;;;;;8.95;8.05;;;;;;;;;;1756323;81;21048;-72
2022/06/29 05:46:00;;;;;;;10.65;8.33;;;;;;;;;;1752717;82;21044;-73
2022/06/29 05:48:26;;;;;;;18.52;10.98;;;;;;;;;;1740584;82;21039;-71
2022/06/29 05:50:52;;;;;;;11.80;8.65;;;;;;;;;;1754251;82;21016;-71
2022/06/29 05:53:18;;;;;;;10.45;9.18;;;;;;;;;;1753327;80;20969;-72
2022/06/29 05:55:46;;;;;;;9.98;9.08;;;;;;;;;;1753962;80;21052;-72
2022/06/29 05:58:15;;;;;;;10.15;8.95;;;;;;;;;;1755778;82;21009;-72
2022/06/29 06:00:40;;;;;;;10.40;9.38;;;;;;;;;;1752542;81;21036;-75
2022/06/29 06:03:06;;;;;;;9.73;8.83;;;;;;;;;;1753976;81;21586;-73
2022/06/29 06:05:33;;;;;;;10.58;9.48;;;;;;;;;;1754710;81;21031;-75
2022/06/29 06:07:59;;;;;;;13.88;9.40;;;;;;;;;;1751142;81;20961;-73
2022/06/29 06:10:25;;;;;;;9.35;8.43;;;;;;;;;;1752969;80;21032;-73
2022/06/29 06:12:52;;;;;;;9.40;8.50;;;;;;;;;;1750787;80;21492;-75
2022/06/29 06:15:19;;;;;;;8.68;7.87;;;;;;;;;;1754008;80;21065;-74
2022/06/29 06:17:46;;;;;;;8.65;7.85;;;;;;;;;;1751962;80;21614;-72
2022/06/29 06:20:12;;;;;;;9.65;8.35;;;;;;;;;;1755171;80;21069;-72
2022/06/29 06:22:37;;;;;;;9.00;8.20;;;;;;;;;;1755496;80;20999;-71
2022/06/29 06:25:05;;;;;;;8.80;7.90;;;;;;;;;;1755219;81;20939;-71
2022/06/29 06:27:31;;;;;;;10.08;8.43;;;;;;;;;;1755221;81;21483;-71
2022/06/29 06:29:57;;;;;;;9.73;8.73;;;;;;;;;;1755443;82;20972;-71
2022/06/29 06:32:23;;;;;;;9.05;8.08;;;;;;;;;;1754660;82;21018;-72
2022/06/29 06:34:49;;;;;;;9.38;8.35;;;;;;;;;;1742399;82;21045;-71
2022/06/29 06:37:16;;;;;;;9.35;8.13;;;;;;;;;;1730017;82;21448;-72
2022/06/29 06:41:21;;;;;;;9.65;8.55;;;;;;;;;;1747755;81;21034;-71
2022/06/29 06:42:10;;;;;;;8.95;8.05;;;;;;;;;;1746277;80;21648;-72
2022/06/29 06:44:38;;;;;;;20.77;9.53;;;;;;;;;;1757314;81;20996;-71
2022/06/29 06:47:05;;;;;;;9.43;8.50;;;;;;;;;;1750749;80;21033;-72
2022/06/29 06:49:31;;;;;;;9.73;8.73;;;;;;;;;;1752164;80;21054;-72
2022/06/29 06:51:56;;;;;;;10.72;9.23;;;;;;;;;;1743455;80;21013;-73
2022/06/29 06:54:22;;;;;;;9.18;8.38;;;;;;;;;;1743162;80;21005;-72
2022/06/29 06:56:48;;;;;;;10.25;7.97;;;;;;;;;;1740934;81;21088;-71
2022/06/29 06:59:14;;;;;;;9.68;8.85;;;;;;;;;;1739752;81;21033;-72
2022/06/29 07:01:41;;;;;;;11.97;10.98;;;;;;;;;;1744865;80;21018;-72
2022/06/29 07:04:07;;;;;;;11.78;10.58;;;;;;;;;;1752191;81;21113;-72
2022/06/29 07:06:34;;;;;;;10.88;9.78;;;;;;;;;;1749499;82;21047;-71
2022/06/29 07:09:00;;;;;;;12.73;8.58;;;;;;;;;;1748529;81;21009;-71
2022/06/29 07:11:26;;;;;;;9.25;8.08;;;;;;;;;;1754563;80;21045;-71
2022/06/29 07:13:52;;;;;;;9.05;8.25;;;;;;;;;;1755757;82;21540;-71
2022/06/29 07:16:18;;;;;;;15.58;9.38;;;;;;;;;;1755005;82;21019;-71
2022/06/29 07:18:45;;;;;;;11.55;8.43;;;;;;;;;;1751415;82;21000;-71
2022/06/29 07:21:12;;;;;;;10.53;8.00;;;;;;;;;;1748737;81;22214;-71
2022/06/29 07:23:38;;;;;;;8.45;7.65;;;;;;;;;;1736512;82;21013;-72
2022/06/29 07:26:05;;;;;;;9.80;8.20;;;;;;;;;;1748213;81;21077;-70
2022/06/29 07:28:33;;;;;;;10.88;8.00;;;;;;;;;;1755422;81;21084;-72
2022/06/29 07:31:00;;;;;;;9.35;8.45;;;;;;;;;;1754136;81;21008;-71
2022/06/29 07:33:27;;;;;;;10.80;8.65;;;;;;;;;;1756704;80;20934;-71
2022/06/29 07:35:53;;;;;;;9.43;8.53;;;;;;;;;;1759999;81;21037;-70
2022/06/29 07:38:19;;;;;;;10.48;8.68;;;;;;;;;;1717895;82;21161;-70
2022/06/29 07:40:45;;;;;;;9.83;8.95;;;;;;;;;;1686134;84;22055;-68
2022/06/29 07:43:12;;;;;;;13.13;9.35;;;;;;;;;;1722523;82;21548;-67
2022/06/29 07:45:38;;;;;;;9.45;8.50;;;;;;;;;;1710098;83;21014;-70
2022/06/29 07:48:05;;;;;;;9.18;8.38;;;;;;;;;;1666364;85;21052;-71
2022/06/29 07:50:31;;;;;;;9.85;8.88;;;;;;;;;;1749580;82;20973;-69
2022/06/29 07:52:58;;;;;;;12.45;8.88;;;;;;;;;;1751908;81;21039;-69
2022/06/29 07:55:24;;;;;;;11.73;9.05;;;;;;;;;;1718722;82;21527;-69
2022/06/29 07:57:51;;;;;;;9.20;8.38;;;;;;;;;;1719199;83;21473;-71
2022/06/29 08:00:17;;;;;;;9.13;8.33;;;;;;;;;;1702592;82;21072;-71
2022/06/29 08:02:44;;;;;;;9.73;8.83;;;;;;;;;;1710450;82;21034;-68
2022/06/29 08:05:10;;;;;;;13.25;9.68;;;;;;;;;;1753734;81;21096;-68
2022/06/29 08:07:36;;;;;;;8.58;7.70;;;;;;;;;;1754699;82;21076;-69
2022/06/29 08:10:03;;;;;;;10.93;8.88;;;;;;;;;;1755677;81;20995;-71
2022/06/29 08:12:31;;;;;;;9.35;8.50;;;;;;;;;;1755123;82;21535;-69
2022/06/29 08:14:57;;;;;;;9.15;8.28;;;;;;;;;;1771287;80;21124;-70
2022/06/29 08:17:23;;;;;;;9.53;8.53;;;;;;;;;;1751305;81;21029;-69
2022/06/29 08:19:50;;;;;;;12.50;8.60;;;;;;;;;;1762600;81;21057;-70
2022/06/29 08:22:16;;;;;;;10.35;9.30;;;;;;;;;;1744601;81;21021;-69
2022/06/29 08:24:43;;;;;;;18.73;9.85;;;;;;;;;;1737511;82;21053;-69
2022/06/29 08:27:09;;;;;;;17.98;9.78;;;;;;;;;;1738405;81;21053;-72
2022/06/29 08:29:35;;;;;;;10.23;9.10;;;;;;;;;;1737829;81;21029;-71
2022/06/29 08:32:02;;;;;;;11.33;10.23;;;;;;;;;;1763702;81;21024;-70
2022/06/29 08:34:40;;;;;;;14.78;9.85;;;;;;;;;;1743145;81;21518;-70
2022/06/29 08:37:06;;;;;;;11.50;9.68;;;;;;;;;;1725187;82;20989;-71
2022/06/29 08:39:33;;;;;;;14.07;10.08;;;;;;;;;;1734853;82;21016;-69
2022/06/29 08:42:03;;;;;;;10.65;8.78;;;;;;;;;;1732336;82;21544;-71
2022/06/29 08:44:31;;;;;;;12.28;9.10;;;;;;;;;;1751806;81;21501;-70
2022/06/29 08:46:58;;;;;;;9.70;8.80;;;;;;;;;;1747072;82;21069;-70
2022/06/29 08:49:25;;;;;;;9.55;8.65;;;;;;;;;;1711994;84;21564;-70
2022/06/29 08:51:51;;;;;;;9.55;8.65;;;;;;;;;;1710746;84;21084;-71
2022/06/29 08:54:17;;;;;;;9.60;8.70;;;;;;;;;;1747508;81;21041;-70
2022/06/29 08:56:43;;;;;;;9.60;8.80;;;;;;;;;;1711471;84;22042;-71
2022/06/29 08:59:10;;;;;;;57.00;11.88;;;;;;;;;;1711560;84;21068;-72
2022/06/29 09:01:36;;;;;;;9.60;8.38;;;;;;;;;;1695648;84;21099;-72
2022/06/29 09:04:02;;;;;;;9.63;8.65;;;;;;;;;;1745811;81;21042;-70
2022/06/29 09:06:28;;;;;;;9.85;8.43;;;;;;;;;;1750783;81;21097;-72
2022/06/29 09:08:54;;;;;;;12.70;9.55;;;;;;;;;;1743843;81;21949;-69
2022/06/29 09:11:25;;;;;;;11.35;9.18;;;;;;;;;;1742317;82;21049;-69
2022/06/29 09:13:52;;;;;;;16.45;14.78;;;;;;;;;;1744491;82;20973;-69
2022/06/29 09:16:19;;;;;;;25.27;22.62;;;;;;;;;;1740941;81;21073;-70
2022/06/29 09:18:45;;;;;;;10.20;9.25;;;;;;;;;;1741790;82;20982;-70
2022/06/29 09:21:11;;;;;;;9.03;8.10;;;;;;;;;;1737867;81;20961;-70
2022/06/29 09:23:37;;;;;;;9.60;8.60;;;;;;;;;;1741045;81;21007;-73
2022/06/29 09:26:03;;;;;;;8.95;8.05;;;;;;;;;;1741633;81;22484;-77
2022/06/29 09:28:31;;;;;;;9.83;7.55;;;;;;;;;;1740463;80;21609;-73
2022/06/29 09:30:58;;;;;;;9.18;7.80;;;;;;;;;;1705625;82;21017;-73
2022/06/29 09:33:25;;;;;;;7.92;7.15;;;;;;;;;;1709683;82;21017;-74
2022/06/29 09:36:10;;;;;;;7.90;7.10;;;;;;;;;;1714712;82;20970;-73
2022/06/29 09:38:37;;;;;;;11.70;7.58;;;;;;;;;;1753896;81;21518;-73
2022/06/29 09:41:07;;;;;;;7.80;7.10;;;;;;;;;;1748051;81;21041;-74
2022/06/29 09:43:43;;;;;;;12.07;7.42;;;;;;;;;;1727571;82;20989;-73
2022/06/29 09:46:10;;;;;;;13.58;12.37;;;;;;;;;;1729076;80;21037;-71
2022/06/29 09:48:36;;;;;;;21.97;19.60;;;;;;;;;;1731778;83;21104;-70
2022/06/29 09:51:30;;;;;;;25.52;23.10;;;;;;;;;;1731676;83;21516;-70
2022/06/29 09:53:38;;;;;;;13.30;9.28;;;;;;;;;;1731999;82;21041;-71
2022/06/29 09:56:04;;;;;;;8.33;7.47;;;;;;;;;;1749649;80;21048;-72
2022/06/29 09:58:32;;;;;;;10.30;8.45;;;;;;;;;;1711317;84;21033;-71
2022/06/29 10:03:43;;;;;;;12.05;7.67;;;;;;;;;;1676736;84;21150;-72
2022/06/29 10:06:10;;;;;;;10.13;7.08;;;;;;;;;;1741372;81;21529;-71
2022/06/29 10:08:37;;;;;;;7.60;6.90;;;;;;;;;;1739727;82;21066;-71
2022/06/29 10:13:39;;;;;;;8.70;7.70;;;;;;;;;;1748442;82;20986;-73
2022/06/29 10:13:39;;;;;;;12.53;8.08;;;;;;;;;;1735451;82;21033;-72
2022/06/29 10:16:08;;;;;;;8.93;7.70;;;;;;;;;;1721820;82;21508;-70
2022/06/29 10:18:53;;;;;;;22.45;20.10;;;;;;;;;;1711514;83;21073;-74
2022/06/29 10:21:23;;;;;;;21.02;18.80;;;;;;;;;;1700605;83;21522;-75
2022/06/29 10:23:50;;;;;;;25.43;22.67;;;;;;;;;;1725471;83;21046;-74
2022/06/29 10:29:12;;;;;;;10.28;8.48;;;;;;;;;;1750183;81;21496;-75
2022/06/29 10:31:53;;;;;;;8.90;8.00;;;;;;;;;;1738739;80;20989;-70
2022/06/29 10:34:31;;;;;;;8.80;7.87;;;;;;;;;;1749392;82;21021;-74
2022/06/29 10:36:57;;;;;;;8.08;7.37;;;;;;;;;;1753228;82;21462;-73
2022/06/29 10:39:23;;;;;;;9.35;7.95;;;;;;;;;;1752927;82;21437;-72
2022/06/29 10:44:53;;;;;;;9.38;7.55;;;;;;;;;;1729308;82;21060;-73
2022/06/29 10:47:22;;;;;;;8.78;8.08;;;;;;;;;;1752533;82;21009;-74
2022/06/29 10:49:49;;;;;;;9.08;7.83;;;;;;;;;;1753410;82;21283;-73
2022/06/29 10:52:15;;;;;;;10.55;8.90;;;;;;;;;;1718316;82;21466;-72
2022/06/29 10:54:43;;;;;;;8.50;7.70;;;;;;;;;;1748992;81;20961;-73
2022/06/29 10:57:10;;;;;;;8.88;8.03;;;;;;;;;;1695064;82;21579;-73
2022/06/29 10:59:37;;;;;;;9.48;8.68;;;;;;;;;;1697060;84;21588;-73
2022/06/29 11:02:13;;;;;;;11.48;8.63;;;;;;;;;;1698571;83;21077;-70
2022/06/29 11:04:39;;;;;;;8.98;8.08;;;;;;;;;;1694689;84;21073;-71
2022/06/29 11:12:38;;;;;;;10.58;9.58;;;;;;;;;;1768196;80;21564;-69
2022/06/29 11:17:49;;;;;;;22.32;20.02;;;;;;;;;;1719745;82;21037;-70
2022/06/29 11:20:17;;;;;;;10.60;9.23;;;;;;;;;;1748706;82;21503;-72
2022/06/29 11:22:49;;;;;;;9.55;8.20;;;;;;;;;;1750795;81;21017;-71
2022/06/29 11:25:15;;;;;;;;;;;;;;;;;;1748887;82;21349;-70
2022/06/29 11:27:41;;;;;;;9.73;7.65;;;;;;;;;;1733810;82;20188;-71
2022/06/29 11:30:08;;;;;;;8.33;7.62;;;;;;;;;;1749604;82;21005;-72
2022/06/29 11:32:39;;;;;;;9.25;8.20;;;;;;;;;;1720626;82;21088;-72
2022/06/29 11:35:05;;;;;;;11.25;8.38;;;;;;;;;;1719666;83;21046;-76
2022/06/29 11:37:32;;;;;;;8.45;7.42;;;;;;;;;;1683769;85;21085;-72
2022/06/29 11:39:58;;;;;;;8.55;7.83;;;;;;;;;;1718600;82;21060;-80
2022/06/29 11:45:15;;;;;;;8.65;7.95;;;;;;;;;;1740752;82;21489;-82
2022/06/29 11:47:51;;;;;;;9.63;8.60;;;;;;;;;;1741983;81;21015;-79
2022/06/29 11:50:17;;;;;;;9.30;8.48;;;;;;;;;;1750535;80;20950;-77
2022/06/29 11:52:50;;;;;;;10.05;8.60;;;;;;;;;;1753030;80;21057;-77
2022/06/29 11:55:16;;;;;;;;;;;;;;;;;;1750856;82;21589;-77
2022/06/29 11:57:42;;;;;;;8.13;7.33;;;;;;;;;;1751704;82;20189;-77
2022/06/29 12:00:09;;;;;;;9.20;8.20;;;;;;;;;;1755577;80;21667;-77
2022/06/29 12:02:35;;;;;;;8.40;7.70;;;;;;;;;;1752760;80;21042;-73
2022/06/29 12:05:02;;;;;;;8.53;7.72;;;;;;;;;;1753848;80;20979;-72
2022/06/29 12:07:31;;;;;;;8.00;7.20;;;;;;;;;;1754185;82;21518;-71
2022/06/29 12:09:58;;;;;;;9.65;7.50;;;;;;;;;;1756066;82;20985;-72
2022/06/29 12:12:24;;;;;;;11.12;7.33;;;;;;;;;;1744684;82;21484;-69
2022/06/29 12:14:52;;;;;;;10.60;7.55;;;;;;;;;;1755684;81;21016;-72
2022/06/29 12:17:18;;;;;;;10.53;9.53;;;;;;;;;;1717265;82;21880;-69
2022/06/29 12:19:46;;;;;;;8.58;7.65;;;;;;;;;;1741734;81;21022;-71
2022/06/29 12:22:12;;;;;;;8.05;7.33;;;;;;;;;;1746683;82;20992;-70
2022/06/29 12:24:39;;;;;;;8.38;7.58;;;;;;;;;;1743371;81;21073;-71
2022/06/29 12:27:05;;;;;;;8.53;7.70;;;;;;;;;;1744298;81;21492;-69
2022/06/29 12:29:31;;;;;;;8.83;7.22;;;;;;;;;;1737584;81;21014;-71
2022/06/29 12:31:57;;;;;;;9.15;7.25;;;;;;;;;;1710436;82;21045;-71
2022/06/29 12:34:23;;;;;;;8.45;7.53;;;;;;;;;;1686042;84;20994;-70
2022/06/29 12:36:51;;;;;;;35.10;29.32;;;;;;;;;;1746894;82;21044;-73
2022/06/29 12:39:17;;;;;;;22.98;20.05;;;;;;;;;;1739086;82;21054;-73
2022/06/29 12:41:43;;;;;;;11.65;8.98;;;;;;;;;;1744275;82;21010;-73
2022/06/29 12:44:09;;;;;;;8.50;7.47;;;;;;;;;;1710719;82;21016;-73
2022/06/29 12:46:39;;;;;;;8.78;7.83;;;;;;;;;;1698843;83;21046;-74
2022/06/29 12:49:05;;;;;;;8.73;7.12;;;;;;;;;;1704534;84;21009;-74
2022/06/29 12:51:31;;;;;;;8.40;7.60;;;;;;;;;;1697757;84;21070;-74
2022/06/29 12:53:59;;;;;;;8.25;7.45;;;;;;;;;;1693817;83;20981;-73
2022/06/29 12:56:26;;;;;;;9.78;7.12;;;;;;;;;;1702049;83;21548;-73
2022/06/29 12:58:52;;;;;;;13.60;7.55;;;;;;;;;;1702658;83;21113;-73
2022/06/29 13:01:19;;;;;;;25.40;8.70;;;;;;;;;;1700239;83;21068;-74
2022/06/29 13:03:45;;;;;;;10.78;7.22;;;;;;;;;;1704292;84;21564;-75
2022/06/29 13:06:11;;;;;;;12.00;7.22;;;;;;;;;;1704831;84;21029;-74
2022/06/29 13:08:38;;;;;;;8.58;6.75;;;;;;;;;;1705046;84;21009;-74
2022/06/29 13:13:46;;;;;;;12.50;8.20;;;;;;;;;;1749499;78;72010;-70
2022/06/29 13:16:13;;;;;;;13.15;11.85;;;;;;;;;;1773125;81;21068;-76
2022/06/29 13:18:39;;;;;;;20.17;18.02;;;;;;;;;;1775535;81;21016;-76
2022/06/29 13:21:05;;;;;;;12.23;10.95;;;;;;;;;;1750982;81;21009;-77
2022/06/29 13:23:31;;;;;;;11.40;8.40;;;;;;;;;;1767191;80;20969;-72
2022/06/29 13:39:54;;;;;;;8.88;5.97;;;;;;;;;;1815027;78;23603;-67
2022/06/29 13:42:20;;;;;;;9.55;6.10;;;;;;;;;;1761563;80;21100;-67
2022/06/29 13:44:46;;;;;;;12.45;6.95;;;;;;;;;;1759361;80;21548;-68
2022/06/29 13:47:12;;;;;;;10.35;6.55;;;;;;;;;;1774886;80;21031;-68
2022/06/29 13:49:38;;;;;;;11.97;5.97;;;;;;;;;;1764336;80;21048;-66
2022/06/29 13:52:04;;;;;;;8.83;5.92;;;;;;;;;;1777562;80;21005;-68
2022/06/29 13:54:31;;;;;;;8.18;5.40;;;;;;;;;;1767579;80;21028;-66
2022/06/29 13:56:57;;;;;;;5.60;4.95;;;;;;;;;;1760415;80;20988;-66
2022/06/29 13:59:23;;;;;;;9.38;5.87;;;;;;;;;;1758417;80;21103;-66
2022/06/29 14:01:49;;;;;;;7.35;5.83;;;;;;;;;;1767130;80;20977;-67
2022/06/29 14:04:16;;;;;;;9.13;6.85;;;;;;;;;;1762258;80;21490;-66
2022/06/29 14:06:42;;;;;;;7.25;6.30;;;;;;;;;;1757932;80;21016;-70
2022/06/29 14:09:08;;;;;;;6.97;6.10;;;;;;;;;;1761301;80;20976;-66
2022/06/29 14:11:35;;;;;;;6.92;5.25;;;;;;;;;;1757321;80;21540;-66
2022/06/29 14:14:02;;;;;;;7.17;5.42;;;;;;;;;;1764414;80;21031;-66
2022/06/29 14:16:28;;;;;;;7.90;6.15;;;;;;;;;;1765087;80;21020;-67
2022/06/29 14:18:55;;;;;;;8.05;7.12;;;;;;;;;;1764048;80;21517;-63
2022/06/29 14:21:21;;;;;;;8.15;6.85;;;;;;;;;;1762419;80;21526;-65
2022/06/29 14:23:48;;;;;;;8.38;6.40;;;;;;;;;;1764203;80;21508;-64
2022/06/29 14:29:10;;;;;;;5.30;4.20;;;;;;;;;;1744718;78;21949;-64
2022/06/29 14:31:37;;;;;;;5.50;4.28;;;;;;;;;;1703193;82;21043;-64
2022/06/29 14:34:04;;;;;;;4.67;4.10;;;;;;;;;;1676665;84;21052;-66
2022/06/29 14:36:30;;;;;;;31.50;27.62;;;;;;;;;;1648289;85;21095;-67
2022/06/29 14:38:58;;;;;;;36.10;32.17;;;;;;;;;;1705395;82;21113;-67
2022/06/29 14:41:25;;;;;;;12.35;10.82;;;;;;;;;;1720703;82;21074;-66
2022/06/29 14:43:51;;;;;;;5.62;4.92;;;;;;;;;;1720530;81;21047;-70
2022/06/29 14:46:17;;;;;;;5.45;4.70;;;;;;;;;;1716766;82;21023;-71
2022/06/29 14:51:39;;;;;;;5.80;5.25;;;;;;;;;;1757149;79;21134;-71
2022/06/29 14:54:05;;;;;;;5.90;5.30;;;;;;;;;;1767379;80;21013;-70
2022/06/29 14:56:32;;;;;;;6.87;6.17;;;;;;;;;;1779809;80;21060;-70
2022/06/29 14:58:58;;;;;;;7.37;6.67;;;;;;;;;;1778784;79;21500;-71
2022/06/29 15:01:24;;;;;;;11.60;7.80;;;;;;;;;;1819587;77;21063;-72
2022/06/29 15:03:51;;;;;;;8.00;7.03;;;;;;;;;;1819627;78;21012;-71
2022/06/29 15:06:18;;;;;;;8.85;7.15;;;;;;;;;;1823638;78;21072;-71
2022/06/29 15:22:12;;;;;;;4.00;3.15;;;;;;;;;;1793282;78;22466;-72
2022/06/29 15:24:38;;;;;;;3.75;3.35;;;;;;;;;;1784691;78;21405;-73
2022/06/29 15:27:04;;;;;;;3.85;3.02;;;;;;;;;;1785109;78;20976;-73
2022/06/29 15:29:31;;;;;;;4.65;3.12;;;;;;;;;;1784899;79;21057;-72
2022/06/29 15:32:00;;;;;;;3.65;3.17;;;;;;;;;;1774316;80;21006;-72
2022/06/29 15:39:56;;;;;;;4.17;3.60;;;;;;;;;;1797882;78;21027;-74
2022/06/29 15:42:22;;;;;;;7.08;4.70;;;;;;;;;;1791969;79;21099;-72
2022/06/29 15:44:48;;;;;;;5.10;4.12;;;;;;;;;;1760805;80;21075;-72